createdAt,value
2018-07-12T00:01:16.730Z,17.13
2018-07-12T00:03:43.938Z,17.14
2018-07-12T00:06:11.120Z,17.14
2018-07-12T00:08:38.343Z,17.13
2018-07-12T00:11:05.535Z,17.11
2018-07-12T00:13:32.732Z,17.08
2018-07-12T00:15:59.943Z,17.05
2018-07-12T00:18:27.154Z,17.02
2018-07-12T00:20:54.363Z,17.02
2018-07-12T00:23:21.576Z,17.04
2018-07-12T00:25:48.789Z,17.05
2018-07-12T00:28:16.003Z,17.08
2018-07-12T00:30:43.230Z,17.09
2018-07-12T00:33:10.437Z,17.11
2018-07-12T00:35:37.636Z,17.12
2018-07-12T00:38:04.817Z,17.12
2018-07-12T00:40:32.031Z,17.12
2018-07-12T00:42:59.256Z,17.12
2018-07-12T00:45:26.446Z,17.11
2018-07-12T00:47:53.671Z,17.14
2018-07-12T00:50:20.849Z,17.13
2018-07-12T00:52:48.069Z,17.11
2018-07-12T00:55:15.261Z,17.10
2018-07-12T00:57:42.481Z,17.08
2018-07-12T01:00:09.672Z,17.06
2018-07-12T01:02:36.887Z,17.04
2018-07-12T01:05:04.098Z,17.05
2018-07-12T01:07:31.337Z,17.07
2018-07-12T01:09:58.562Z,17.08
2018-07-12T01:12:25.757Z,17.09
2018-07-12T01:14:52.976Z,17.08
2018-07-12T01:17:20.183Z,17.06
2018-07-12T01:19:47.393Z,17.04
2018-07-12T01:22:14.577Z,17.04
2018-07-12T01:24:41.781Z,17.05
2018-07-12T01:27:08.972Z,17.06
2018-07-12T01:29:36.169Z,17.06
2018-07-12T01:32:03.367Z,17.06
2018-07-12T01:34:30.579Z,17.05
2018-07-12T01:36:57.784Z,17.04
2018-07-12T01:39:25.010Z,17.02
2018-07-12T01:41:52.664Z,17.00
2018-07-12T01:44:19.865Z,16.98
2018-07-12T01:46:47.103Z,16.96
2018-07-12T01:49:14.296Z,16.94
2018-07-12T01:51:41.489Z,16.93
2018-07-12T01:54:08.690Z,16.92
2018-07-12T01:56:35.941Z,16.89
2018-07-12T01:59:03.160Z,16.86
2018-07-12T02:01:30.377Z,16.87
2018-07-12T02:03:57.585Z,16.87
2018-07-12T02:06:24.835Z,16.85
2018-07-12T02:08:52.055Z,16.84
2018-07-12T02:11:19.275Z,16.82
2018-07-12T02:13:46.482Z,16.82
2018-07-12T02:16:13.702Z,16.81
2018-07-12T02:18:40.927Z,16.82
2018-07-12T02:21:08.125Z,16.81
2018-07-12T02:23:35.349Z,16.80
2018-07-12T02:26:02.563Z,16.79
2018-07-12T02:28:29.817Z,16.75
2018-07-12T02:30:57.021Z,16.72
2018-07-12T02:33:24.239Z,16.67
2018-07-12T02:35:51.441Z,16.64
2018-07-12T02:38:18.653Z,16.61
2018-07-12T02:40:45.890Z,16.60
2018-07-12T02:43:13.092Z,16.55
2018-07-12T02:45:40.299Z,16.53
2018-07-12T02:48:07.524Z,16.51
2018-07-12T02:50:34.741Z,16.48
2018-07-12T02:53:01.926Z,16.43
2018-07-12T02:55:29.148Z,16.38
2018-07-12T02:57:56.428Z,16.34
2018-07-12T03:00:23.605Z,16.29
2018-07-12T03:02:50.809Z,16.24
2018-07-12T03:05:17.990Z,16.18
2018-07-12T03:07:45.188Z,16.14
2018-07-12T03:10:12.367Z,16.12
2018-07-12T03:12:39.570Z,16.10
2018-07-12T03:15:06.768Z,16.11
2018-07-12T03:17:33.978Z,16.10
2018-07-12T03:20:01.180Z,16.08
2018-07-12T03:22:28.423Z,16.05
2018-07-12T03:24:55.773Z,16.05
2018-07-12T03:27:22.977Z,16.04
2018-07-12T03:29:50.200Z,16.01
2018-07-12T03:32:17.459Z,15.96
2018-07-12T03:34:44.699Z,15.93
2018-07-12T03:37:11.927Z,15.90
2018-07-12T03:39:39.171Z,15.90
2018-07-12T03:42:06.423Z,15.91
2018-07-12T03:44:33.678Z,15.96
2018-07-12T03:47:00.896Z,16.00
2018-07-12T03:49:28.355Z,16.04
2018-07-12T03:51:55.593Z,16.04
2018-07-12T03:54:22.836Z,16.03
2018-07-12T03:56:50.038Z,16.01
2018-07-12T03:59:17.284Z,16.01
2018-07-12T04:01:44.519Z,16.05
2018-07-12T04:04:11.719Z,16.09
2018-07-12T04:06:38.939Z,16.11
2018-07-12T04:09:06.639Z,16.14
2018-07-12T04:11:33.860Z,16.18
2018-07-12T04:14:01.096Z,16.21
2018-07-12T04:16:28.372Z,16.25
2018-07-12T04:18:55.631Z,16.27
2018-07-12T04:21:22.829Z,16.27
2018-07-12T04:23:50.078Z,16.31
2018-07-12T04:26:17.289Z,16.34
2018-07-12T04:28:44.507Z,16.34
2018-07-12T04:31:12.053Z,16.30
2018-07-12T04:33:39.284Z,16.29
2018-07-12T04:36:06.510Z,16.31
2018-07-12T04:38:33.737Z,16.36
2018-07-12T04:41:00.946Z,16.40
2018-07-12T04:43:28.148Z,16.40
2018-07-12T04:45:55.377Z,16.44
2018-07-12T04:48:22.582Z,16.46
2018-07-12T04:50:49.800Z,16.46
2018-07-12T04:53:17.027Z,16.47
2018-07-12T04:55:44.241Z,16.51
2018-07-12T04:58:11.535Z,16.58
2018-07-12T05:00:38.674Z,16.60
2018-07-12T05:03:05.892Z,16.65
2018-07-12T05:05:33.225Z,16.70
2018-07-12T05:08:00.489Z,16.72
2018-07-12T05:10:27.720Z,16.79
2018-07-12T05:12:54.925Z,16.81
2018-07-12T05:15:22.152Z,16.83
2018-07-12T05:20:22.901Z,16.90
2018-07-12T05:22:50.122Z,16.97
2018-07-12T05:25:17.347Z,17.07
2018-07-12T05:27:44.577Z,17.15
2018-07-12T05:30:11.773Z,17.17
2018-07-12T05:32:39.005Z,17.26
2018-07-12T05:35:06.216Z,17.31
2018-07-12T05:37:34.569Z,17.42
2018-07-12T05:40:02.973Z,17.54
2018-07-12T05:42:31.277Z,17.47
2018-07-12T05:44:59.616Z,17.40
2018-07-12T05:47:28.040Z,17.37
2018-07-12T05:49:56.386Z,17.33
2018-07-12T05:52:24.745Z,17.34
2018-07-12T05:54:53.060Z,17.31
2018-07-12T05:57:40.125Z,17.33
2018-07-12T06:00:08.617Z,17.29
2018-07-12T06:02:37.468Z,17.29
2018-07-12T06:05:05.931Z,17.23
2018-07-12T06:07:34.281Z,17.24
2018-07-12T06:10:02.626Z,17.33
2018-07-12T06:12:30.979Z,17.52
2018-07-12T06:14:59.335Z,17.61
2018-07-12T06:17:27.715Z,17.62
2018-07-12T06:19:56.172Z,17.78
2018-07-12T06:22:24.581Z,17.96
2018-07-12T06:24:52.997Z,18.15
2018-07-12T06:27:21.384Z,18.34
2018-07-12T06:29:49.805Z,18.49
2018-07-12T06:32:18.149Z,18.57
2018-07-12T06:34:46.511Z,18.67
2018-07-12T06:37:14.913Z,18.76
2018-07-12T06:39:43.386Z,18.83
2018-07-12T06:42:11.769Z,18.73
2018-07-12T06:44:40.105Z,18.71
2018-07-12T06:47:08.404Z,18.83
2018-07-12T06:49:36.757Z,18.99
2018-07-12T06:52:05.133Z,19.17
2018-07-12T06:54:33.488Z,19.33
2018-07-12T06:57:01.850Z,19.40
2018-07-12T06:59:30.183Z,19.38
2018-07-12T07:01:58.542Z,19.45
2018-07-12T07:04:26.866Z,19.51
2018-07-12T07:06:55.392Z,19.61
2018-07-12T07:09:23.727Z,19.79
2018-07-12T07:11:52.117Z,20.08
2018-07-12T07:14:20.461Z,20.31
2018-07-12T07:16:48.825Z,20.34
2018-07-12T07:19:17.165Z,20.45
2018-07-12T07:21:45.529Z,20.55
2018-07-12T07:24:13.882Z,20.58
2018-07-12T07:26:43.141Z,20.73
2018-07-12T07:29:11.489Z,20.88
2018-07-12T07:31:39.817Z,20.91
2018-07-12T07:34:08.219Z,20.86
2018-07-12T07:36:36.565Z,20.80
2018-07-12T07:39:07.052Z,20.75
2018-07-12T07:41:35.361Z,20.80
2018-07-12T07:44:04.183Z,20.83
2018-07-12T07:46:32.520Z,20.93
2018-07-12T07:49:00.854Z,21.08
2018-07-12T07:51:29.233Z,21.14
2018-07-12T07:53:57.602Z,21.24
2018-07-12T07:56:26.005Z,21.29
2018-07-12T07:58:54.339Z,21.43
2018-07-12T08:01:22.837Z,21.48
2018-07-12T08:03:51.190Z,21.42
2018-07-12T08:06:19.555Z,21.40
2018-07-12T08:08:47.905Z,21.52
2018-07-12T08:11:16.267Z,21.53
2018-07-12T08:13:44.660Z,21.32
2018-07-12T08:16:13.067Z,21.16
2018-07-12T08:18:41.445Z,21.11
2018-07-12T08:21:12.624Z,21.03
2018-07-12T08:23:41.257Z,21.06
2018-07-12T08:26:09.801Z,21.22
2018-07-12T08:28:38.167Z,21.37
2018-07-12T08:31:06.520Z,21.54
2018-07-12T08:33:34.885Z,21.65
2018-07-12T08:36:03.259Z,21.59
2018-07-12T08:38:31.632Z,21.55
2018-07-12T08:41:00.099Z,21.49
2018-07-12T08:43:28.933Z,21.42
2018-07-12T08:45:57.270Z,21.36
2018-07-12T08:48:25.644Z,21.29
2018-07-12T08:50:53.966Z,21.34
2018-07-12T08:53:22.286Z,21.45
2018-07-12T08:55:50.605Z,21.70
2018-07-12T08:58:18.989Z,21.89
2018-07-12T09:00:47.561Z,21.92
2018-07-12T09:03:15.933Z,21.92
2018-07-12T09:05:44.363Z,21.85
2018-07-12T09:08:12.680Z,21.86
2018-07-12T09:10:41.001Z,21.99
2018-07-12T09:13:09.372Z,22.25
2018-07-12T09:15:37.772Z,22.35
2018-07-12T09:18:06.202Z,22.44
2018-07-12T09:20:34.549Z,22.53
2018-07-12T09:23:02.902Z,22.51
2018-07-12T09:25:31.468Z,22.45
2018-07-12T09:27:59.815Z,22.45
2018-07-12T09:30:28.108Z,22.63
2018-07-12T09:32:56.435Z,22.74
2018-07-12T09:35:24.761Z,22.60
2018-07-12T09:37:53.113Z,22.42
2018-07-12T09:40:21.469Z,22.43
2018-07-12T09:42:49.810Z,22.54
2018-07-12T09:45:18.166Z,22.60
2018-07-12T09:47:46.483Z,22.74
2018-07-12T09:50:14.871Z,22.85
2018-07-12T09:52:43.229Z,22.92
2018-07-12T09:55:11.558Z,22.95
2018-07-12T09:57:51.208Z,23.05
2018-07-12T10:00:23.694Z,23.17
2018-07-12T10:03:30.691Z,23.29
2018-07-12T10:05:59.930Z,23.48
2018-07-12T10:08:33.536Z,23.58
2018-07-12T10:11:08.066Z,23.74
2018-07-12T10:13:41.743Z,23.79
2018-07-12T10:16:15.453Z,23.87
2018-07-12T10:18:43.896Z,23.70
2018-07-12T10:21:12.305Z,23.57
2018-07-12T10:23:47.348Z,23.50
2018-07-12T10:26:15.689Z,23.61
2018-07-12T10:28:44.330Z,23.66
2018-07-12T10:31:12.692Z,23.67
2018-07-12T10:33:41.036Z,23.66
2018-07-12T10:36:09.387Z,23.59
2018-07-12T10:38:37.721Z,23.67
2018-07-12T10:41:06.101Z,23.76
2018-07-12T10:43:34.437Z,23.71
2018-07-12T10:46:02.790Z,23.53
2018-07-12T10:48:31.124Z,23.27
2018-07-12T10:50:59.451Z,23.10
2018-07-12T10:53:27.762Z,22.97
2018-07-12T10:55:56.082Z,22.84
2018-07-12T10:58:24.515Z,22.81
2018-07-12T11:00:52.897Z,22.94
2018-07-12T11:03:21.253Z,23.05
2018-07-12T11:05:49.636Z,23.20
2018-07-12T11:08:18.081Z,23.45
2018-07-12T11:10:46.428Z,23.70
2018-07-12T11:13:17.476Z,23.85
2018-07-12T11:15:46.625Z,23.93
2018-07-12T11:18:14.980Z,23.82
2018-07-12T11:20:43.324Z,23.70
2018-07-12T11:23:11.667Z,23.47
2018-07-12T11:25:39.974Z,23.25
2018-07-12T11:28:08.380Z,23.14
2018-07-12T11:30:36.663Z,23.24
2018-07-12T11:33:32.129Z,23.51
2018-07-12T11:36:00.507Z,23.94
2018-07-12T11:38:28.835Z,24.12
2018-07-12T11:40:57.253Z,24.04
2018-07-12T11:43:25.588Z,23.88
2018-07-12T11:45:53.959Z,23.74
2018-07-12T11:48:22.575Z,23.59
2018-07-12T11:50:51.182Z,23.38
2018-07-12T11:53:19.541Z,23.35
2018-07-12T11:55:48.074Z,23.47
2018-07-12T11:58:16.422Z,23.75
2018-07-12T12:00:44.870Z,24.13
2018-07-12T12:03:13.213Z,24.35
2018-07-12T12:05:41.793Z,24.59
2018-07-12T12:08:10.120Z,24.81
2018-07-12T12:10:38.511Z,24.78
2018-07-12T12:13:06.842Z,24.73
2018-07-12T12:15:35.160Z,24.57
2018-07-12T12:18:03.542Z,24.54
2018-07-12T12:20:31.841Z,24.58
2018-07-12T12:23:00.133Z,24.63
2018-07-12T12:25:28.453Z,24.55
2018-07-12T12:27:57.223Z,24.53
2018-07-12T12:30:25.744Z,24.66
2018-07-12T12:32:54.100Z,24.69
2018-07-12T12:35:22.437Z,24.78
2018-07-12T12:37:50.782Z,24.87
2018-07-12T12:40:19.108Z,25.09
2018-07-12T12:42:47.491Z,25.20
2018-07-12T12:45:15.810Z,25.08
2018-07-12T12:47:44.129Z,25.00
2018-07-12T12:50:12.456Z,24.90
2018-07-12T12:52:40.806Z,24.88
2018-07-12T12:55:09.122Z,24.95
2018-07-12T12:57:37.669Z,25.10
2018-07-12T13:00:06.905Z,25.27
2018-07-12T13:02:35.299Z,25.38
2018-07-12T13:05:03.999Z,25.61
2018-07-12T13:07:32.345Z,25.84
2018-07-12T13:10:00.731Z,25.87
2018-07-12T13:12:29.069Z,25.81
2018-07-12T13:14:57.368Z,25.59
2018-07-12T13:17:25.744Z,25.39
2018-07-12T13:19:54.081Z,25.32
2018-07-12T13:22:22.433Z,25.30
2018-07-12T13:24:50.802Z,25.30
2018-07-12T13:27:19.223Z,25.23
2018-07-12T13:29:47.568Z,25.05
2018-07-12T13:32:16.078Z,24.91
2018-07-12T13:34:44.438Z,24.84
2018-07-12T13:37:12.794Z,24.77
2018-07-12T13:39:41.111Z,24.68
2018-07-12T13:42:09.412Z,24.65
2018-07-12T13:44:37.741Z,24.66
2018-07-12T13:47:06.208Z,24.74
2018-07-12T13:49:34.527Z,24.90
2018-07-12T13:52:02.892Z,24.96
2018-07-12T13:54:31.226Z,24.94
2018-07-12T13:56:59.597Z,24.92
2018-07-12T13:59:27.914Z,24.92
2018-07-12T14:01:56.242Z,24.93
2018-07-12T14:04:24.564Z,24.86
2018-07-12T14:06:52.991Z,24.87
2018-07-12T14:09:21.359Z,24.93
2018-07-12T14:11:49.657Z,24.97
2018-07-12T14:14:17.995Z,24.99
2018-07-12T14:16:46.332Z,25.07
2018-07-12T14:19:14.711Z,25.14
2018-07-12T14:21:43.043Z,25.19
2018-07-12T14:24:11.393Z,25.20
2018-07-12T14:26:39.696Z,25.24
2018-07-12T14:29:08.020Z,25.39
2018-07-12T14:31:36.341Z,25.50
2018-07-12T14:34:04.719Z,25.55
2018-07-12T14:36:33.059Z,25.56
2018-07-12T14:39:01.421Z,25.56
2018-07-12T14:41:29.791Z,25.45
2018-07-12T14:43:58.111Z,25.29
2018-07-12T14:46:26.496Z,25.18
2018-07-12T14:48:54.801Z,25.09
2018-07-12T14:51:23.208Z,25.01
2018-07-12T14:53:51.512Z,24.95
2018-07-12T14:56:19.817Z,24.96
2018-07-12T14:58:48.289Z,25.02
2018-07-12T15:01:16.608Z,25.01
2018-07-12T15:03:44.934Z,25.00
2018-07-12T15:06:13.228Z,24.99
2018-07-12T15:08:41.631Z,24.95
2018-07-12T15:11:09.968Z,24.93
2018-07-12T15:13:38.286Z,24.87
2018-07-12T15:16:06.641Z,24.81
2018-07-12T15:18:34.992Z,24.71
2018-07-12T15:21:03.340Z,24.48
2018-07-12T15:23:31.705Z,24.39
2018-07-12T15:26:00.131Z,24.36
2018-07-12T15:28:28.499Z,24.33
2018-07-12T15:30:56.800Z,24.30
2018-07-12T15:33:25.172Z,24.24
2018-07-12T15:35:53.657Z,24.23
2018-07-12T15:38:22.019Z,24.18
2018-07-12T15:40:50.383Z,24.17
2018-07-12T15:43:18.788Z,24.19
2018-07-12T15:45:47.121Z,24.21
2018-07-12T15:48:15.475Z,24.20
2018-07-12T15:50:43.849Z,24.16
2018-07-12T15:53:12.239Z,24.20
2018-07-12T15:55:40.562Z,24.22
2018-07-12T15:58:08.894Z,24.34
2018-07-12T16:00:37.249Z,24.46
2018-07-12T16:03:05.615Z,24.64
2018-07-12T16:05:33.964Z,24.81
2018-07-12T16:08:02.275Z,24.92
2018-07-12T16:10:30.736Z,24.93
2018-07-12T16:12:59.056Z,24.88
2018-07-12T16:15:27.453Z,24.83
2018-07-12T16:17:55.824Z,24.73
2018-07-12T16:20:24.137Z,24.62
2018-07-12T16:22:52.540Z,24.52
2018-07-12T16:25:20.994Z,24.41
2018-07-12T16:27:49.403Z,24.33
2018-07-12T16:30:17.691Z,24.24
2018-07-12T16:32:46.026Z,24.21
2018-07-12T16:35:14.351Z,24.22
2018-07-12T16:37:42.697Z,24.22
2018-07-12T16:40:11.046Z,24.16
2018-07-12T16:42:39.379Z,24.06
2018-07-12T16:45:07.909Z,23.95
2018-07-12T16:47:36.212Z,23.83
2018-07-12T16:50:04.679Z,23.75
2018-07-12T16:52:33.006Z,23.62
2018-07-12T16:55:01.276Z,23.45
2018-07-12T16:57:29.704Z,23.29
2018-07-12T16:59:58.045Z,23.19
2018-07-12T17:02:26.396Z,23.02
2018-07-12T17:04:54.712Z,22.77
2018-07-12T17:07:23.083Z,22.33
2018-07-12T17:09:51.432Z,22.08
2018-07-12T17:12:19.788Z,21.87
2018-07-12T17:14:48.118Z,21.75
2018-07-12T17:17:16.492Z,21.65
2018-07-12T17:19:44.944Z,21.49
2018-07-12T17:22:13.325Z,21.44
2018-07-12T17:24:41.679Z,21.37
2018-07-12T17:27:10.014Z,21.32
2018-07-12T17:29:38.409Z,21.30
2018-07-12T17:32:06.724Z,21.27
2018-07-12T17:34:35.081Z,21.18
2018-07-12T17:37:03.424Z,21.12
2018-07-12T17:39:31.752Z,21.07
2018-07-12T17:42:00.081Z,21.03
2018-07-12T17:44:28.415Z,21.04
2018-07-12T17:46:56.874Z,21.07
2018-07-12T17:49:25.268Z,21.11
2018-07-12T17:51:53.848Z,21.14
2018-07-12T17:54:22.188Z,21.17
2018-07-12T17:56:50.880Z,21.25
2018-07-12T17:59:19.170Z,21.30
2018-07-12T18:01:47.482Z,21.31
2018-07-12T18:04:15.850Z,21.25
2018-07-12T18:06:44.192Z,21.19
2018-07-12T18:09:12.525Z,21.14
2018-07-12T18:11:41.101Z,21.03
2018-07-12T18:14:09.456Z,20.98
2018-07-12T18:16:37.872Z,20.95
2018-07-12T18:19:06.292Z,20.93
2018-07-12T18:21:34.600Z,20.89
2018-07-12T18:24:02.942Z,20.85
2018-07-12T18:26:31.252Z,20.81
2018-07-12T18:28:59.631Z,20.75
2018-07-12T18:31:27.956Z,20.72
2018-07-12T18:33:56.369Z,20.65
2018-07-12T18:36:24.785Z,20.57
2018-07-12T18:38:53.133Z,20.53
2018-07-12T18:41:21.527Z,20.46
2018-07-12T18:43:50.094Z,20.43
2018-07-12T18:46:18.433Z,20.41
2018-07-12T18:48:46.755Z,20.37
2018-07-12T18:51:15.091Z,20.36
2018-07-12T18:53:43.401Z,20.34
2018-07-12T18:56:11.811Z,20.31
2018-07-12T18:58:40.169Z,20.29
2018-07-12T19:01:08.531Z,20.29
2018-07-12T19:03:36.829Z,20.29
2018-07-12T19:06:05.188Z,20.28
2018-07-12T19:08:33.539Z,20.29
2018-07-12T19:11:01.928Z,20.29
2018-07-12T19:13:30.305Z,20.33
2018-07-12T19:15:58.663Z,20.33
2018-07-12T19:18:26.989Z,20.33
2018-07-12T19:20:55.365Z,20.35
2018-07-12T19:23:23.787Z,20.33
2018-07-12T19:25:52.117Z,20.34
2018-07-12T19:28:20.500Z,20.34
2018-07-12T19:30:48.862Z,20.33
2018-07-12T19:33:17.290Z,20.29
2018-07-12T19:35:45.625Z,20.26
2018-07-12T19:38:13.959Z,20.23
2018-07-12T19:40:42.323Z,20.24
2018-07-12T19:43:10.634Z,20.26
2018-07-12T19:45:38.966Z,20.24
2018-07-12T19:48:07.302Z,20.20
2018-07-12T19:50:35.637Z,20.17
2018-07-12T19:53:04.017Z,20.14
2018-07-12T19:55:32.352Z,20.12
2018-07-12T19:58:00.693Z,20.08
2018-07-12T20:00:29.006Z,20.06
2018-07-12T20:02:57.361Z,20.06
2018-07-12T20:05:25.681Z,20.06
2018-07-12T20:07:53.966Z,20.04
2018-07-12T20:10:22.296Z,20.06
2018-07-12T20:12:53.541Z,20.08
2018-07-12T20:15:21.903Z,20.09
2018-07-12T20:17:50.244Z,20.12
2018-07-12T20:20:18.658Z,20.13
2018-07-12T20:22:46.999Z,20.15
2018-07-12T20:25:15.337Z,20.13
2018-07-12T20:27:43.635Z,20.10
2018-07-12T20:30:12.037Z,20.08
2018-07-12T20:32:40.747Z,20.08
2018-07-12T20:35:09.063Z,20.08
2018-07-12T20:37:37.476Z,20.12
2018-07-12T20:40:05.821Z,20.13
2018-07-12T20:42:34.141Z,20.09
2018-07-12T20:45:02.627Z,20.07
2018-07-12T20:47:31.003Z,20.04
2018-07-12T20:49:59.588Z,20.02
2018-07-12T20:52:27.942Z,20.03
2018-07-12T20:54:59.424Z,20.06
2018-07-12T20:57:27.814Z,20.07
2018-07-12T20:59:56.169Z,20.02
2018-07-12T21:02:24.506Z,19.99
2018-07-12T21:04:52.890Z,19.96
2018-07-12T21:07:21.259Z,19.93
2018-07-12T21:09:49.569Z,19.89
2018-07-12T21:12:18.434Z,19.84
2018-07-12T21:14:46.808Z,19.78
2018-07-12T21:17:15.252Z,19.74
2018-07-12T21:19:43.601Z,19.71
2018-07-12T21:22:11.897Z,19.67
2018-07-12T21:24:40.245Z,19.69
2018-07-12T21:27:08.550Z,19.69
2018-07-12T21:29:36.889Z,19.68
2018-07-12T21:32:05.255Z,19.66
2018-07-12T21:34:33.614Z,19.65
2018-07-12T21:37:01.967Z,19.64
2018-07-12T21:39:30.263Z,19.64
2018-07-12T21:41:58.670Z,19.64
2018-07-12T21:44:27.075Z,19.66
2018-07-12T21:46:55.397Z,19.65
2018-07-12T21:49:23.739Z,19.66
2018-07-12T21:51:52.608Z,19.65
2018-07-12T21:54:20.954Z,19.65
2018-07-12T21:56:49.282Z,19.64
2018-07-12T21:59:17.613Z,19.63
2018-07-12T22:01:45.916Z,19.63
2018-07-12T22:04:14.260Z,19.63
2018-07-12T22:08:51.351Z,19.60
2018-07-12T22:11:19.686Z,19.51
2018-07-12T22:13:48.039Z,19.45
2018-07-12T22:16:16.627Z,19.40
2018-07-12T22:18:44.944Z,19.33
2018-07-12T22:21:13.284Z,19.27
2018-07-12T22:23:41.616Z,19.22
2018-07-12T22:26:09.919Z,19.16
2018-07-12T22:28:38.280Z,19.07
2018-07-12T22:31:06.623Z,18.98
2018-07-12T22:33:34.932Z,18.92
2018-07-12T22:36:03.280Z,18.86
2018-07-12T22:38:31.623Z,18.81
2018-07-12T22:40:59.970Z,18.77
2018-07-12T22:43:28.352Z,18.74
2018-07-12T22:45:56.643Z,18.73
2018-07-12T22:48:25.187Z,18.69
2018-07-12T22:50:53.318Z,18.65
2018-07-12T22:53:21.678Z,18.60
2018-07-12T22:55:50.034Z,18.57
2018-07-12T22:58:18.383Z,18.55
2018-07-12T23:00:46.974Z,18.53
2018-07-12T23:03:15.327Z,18.47
2018-07-12T23:05:43.663Z,18.46
2018-07-12T23:08:12.031Z,18.43
2018-07-12T23:10:40.346Z,18.43
2018-07-12T23:13:08.757Z,18.41
2018-07-12T23:15:37.102Z,18.40
2018-07-12T23:18:05.714Z,18.38
2018-07-12T23:20:34.089Z,18.36
2018-07-12T23:23:02.464Z,18.30
2018-07-12T23:25:30.814Z,18.22
2018-07-12T23:27:59.165Z,18.15
2018-07-12T23:30:27.519Z,18.10
2018-07-12T23:32:55.967Z,18.05
2018-07-12T23:35:24.333Z,18.03
2018-07-12T23:37:53.041Z,17.99
2018-07-12T23:40:21.447Z,17.96
2018-07-12T23:42:49.777Z,17.93
2018-07-12T23:45:18.111Z,17.91
2018-07-12T23:47:46.410Z,17.89
2018-07-12T23:50:14.819Z,17.87
2018-07-12T23:52:43.189Z,17.85
2018-07-12T23:55:11.537Z,17.82
2018-07-12T23:57:39.885Z,17.78
